sensor_id;sensor_type;location;lat;lon;timestamp;P1;durP1;ratioP1;P2;durP2;ratioP2
48487;SDS011;34289;48.572;13.378;2022-12-18T00:01:20;57.08;;;29.58;;
48487;SDS011;34289;48.572;13.378;2022-12-18T00:04:05;55.38;;;28.13;;
48487;SDS011;34289;48.572;13.378;2022-12-18T00:06:31;58.15;;;27.25;;
48487;SDS011;34289;48.572;13.378;2022-12-18T00:08:58;64.10;;;30.45;;
48487;SDS011;34289;48.572;13.378;2022-12-18T00:11:25;66.70;;;32.83;;
48487;SDS011;34289;48.572;13.378;2022-12-18T00:13:53;61.72;;;29.98;;
48487;SDS011;34289;48.572;13.378;2022-12-18T00:16:21;54.38;;;28.17;;
48487;SDS011;34289;48.572;13.378;2022-12-18T00:18:53;50.47;;;26.55;;
48487;SDS011;34289;48.572;13.378;2022-12-18T00:21:24;52.75;;;26.77;;
48487;SDS011;34289;48.572;13.378;2022-12-18T00:23:51;48.22;;;26.50;;
48487;SDS011;34289;48.572;13.378;2022-12-18T00:26:20;53.38;;;28.13;;
48487;SDS011;34289;48.572;13.378;2022-12-18T00:28:48;53.35;;;27.75;;
48487;SDS011;34289;48.572;13.378;2022-12-18T00:31:15;49.47;;;25.23;;
48487;SDS011;34289;48.572;13.378;2022-12-18T00:33:43;59.08;;;29.13;;
48487;SDS011;34289;48.572;13.378;2022-12-18T00:36:21;50.72;;;27.58;;
48487;SDS011;34289;48.572;13.378;2022-12-18T00:38:49;59.28;;;30.33;;
48487;SDS011;34289;48.572;13.378;2022-12-18T00:41:16;64.93;;;28.88;;
48487;SDS011;34289;48.572;13.378;2022-12-18T00:44:02;58.30;;;29.65;;
48487;SDS011;34289;48.572;13.378;2022-12-18T00:46:29;49.53;;;24.85;;
48487;SDS011;34289;48.572;13.378;2022-12-18T00:48:54;58.80;;;28.73;;
48487;SDS011;34289;48.572;13.378;2022-12-18T00:51:20;50.35;;;27.52;;
48487;SDS011;34289;48.572;13.378;2022-12-18T00:53:45;57.70;;;28.13;;
48487;SDS011;34289;48.572;13.378;2022-12-18T00:56:11;58.15;;;29.30;;
48487;SDS011;34289;48.572;13.378;2022-12-18T00:58:37;60.92;;;30.10;;
48487;SDS011;34289;48.572;13.378;2022-12-18T01:01:05;56.60;;;30.20;;
48487;SDS011;34289;48.572;13.378;2022-12-18T01:03:31;62.25;;;30.13;;
48487;SDS011;34289;48.572;13.378;2022-12-18T01:05:57;62.13;;;31.25;;
48487;SDS011;34289;48.572;13.378;2022-12-18T01:08:23;62.95;;;29.38;;
48487;SDS011;34289;48.572;13.378;2022-12-18T01:10:49;61.47;;;30.23;;
48487;SDS011;34289;48.572;13.378;2022-12-18T01:13:14;62.67;;;31.20;;
48487;SDS011;34289;48.572;13.378;2022-12-18T01:15:40;62.88;;;29.95;;
48487;SDS011;34289;48.572;13.378;2022-12-18T01:18:12;71.07;;;33.47;;
48487;SDS011;34289;48.572;13.378;2022-12-18T01:20:37;68.53;;;34.75;;
48487;SDS011;34289;48.572;13.378;2022-12-18T01:23:03;67.75;;;33.70;;
48487;SDS011;34289;48.572;13.378;2022-12-18T01:25:29;72.93;;;31.73;;
48487;SDS011;34289;48.572;13.378;2022-12-18T01:27:57;65.78;;;31.92;;
48487;SDS011;34289;48.572;13.378;2022-12-18T01:30:23;67.10;;;33.05;;
48487;SDS011;34289;48.572;13.378;2022-12-18T01:32:49;71.70;;;32.40;;
48487;SDS011;34289;48.572;13.378;2022-12-18T01:35:14;69.25;;;32.63;;
48487;SDS011;34289;48.572;13.378;2022-12-18T01:37:40;69.95;;;31.58;;
48487;SDS011;34289;48.572;13.378;2022-12-18T01:40:06;78.75;;;33.78;;
48487;SDS011;34289;48.572;13.378;2022-12-18T01:42:32;74.65;;;33.28;;
48487;SDS011;34289;48.572;13.378;2022-12-18T01:50:02;69.35;;;33.92;;
48487;SDS011;34289;48.572;13.378;2022-12-18T01:53:33;64.43;;;31.63;;
48487;SDS011;34289;48.572;13.378;2022-12-18T01:55:45;73.70;;;32.42;;
48487;SDS011;34289;48.572;13.378;2022-12-18T01:58:13;73.60;;;33.20;;
48487;SDS011;34289;48.572;13.378;2022-12-18T02:00:39;84.15;;;36.97;;
48487;SDS011;34289;48.572;13.378;2022-12-18T02:03:05;76.18;;;33.58;;
48487;SDS011;34289;48.572;13.378;2022-12-18T02:13:36;77.63;;;33.28;;
48487;SDS011;34289;48.572;13.378;2022-12-18T02:16:23;73.05;;;32.97;;
48487;SDS011;34289;48.572;13.378;2022-12-18T02:19:06;66.70;;;31.08;;
48487;SDS011;34289;48.572;13.378;2022-12-18T02:21:47;72.43;;;31.83;;
48487;SDS011;34289;48.572;13.378;2022-12-18T02:24:35;68.70;;;32.28;;
48487;SDS011;34289;48.572;13.378;2022-12-18T02:27:12;77.28;;;34.47;;
48487;SDS011;34289;48.572;13.378;2022-12-18T02:29:51;77.05;;;34.08;;
48487;SDS011;34289;48.572;13.378;2022-12-18T02:32:21;74.78;;;33.45;;
48487;SDS011;34289;48.572;13.378;2022-12-18T02:34:52;83.20;;;36.63;;
48487;SDS011;34289;48.572;13.378;2022-12-18T02:37:21;77.38;;;33.92;;
48487;SDS011;34289;48.572;13.378;2022-12-18T02:39:48;81.82;;;35.03;;
48487;SDS011;34289;48.572;13.378;2022-12-18T02:42:16;84.45;;;33.75;;
48487;SDS011;34289;48.572;13.378;2022-12-18T02:44:49;79.88;;;32.13;;
48487;SDS011;34289;48.572;13.378;2022-12-18T02:47:18;74.05;;;32.00;;
48487;SDS011;34289;48.572;13.378;2022-12-18T02:52:41;81.05;;;35.38;;
48487;SDS011;34289;48.572;13.378;2022-12-18T02:55:27;78.32;;;34.78;;
48487;SDS011;34289;48.572;13.378;2022-12-18T03:01:00;76.53;;;33.10;;
48487;SDS011;34289;48.572;13.378;2022-12-18T03:03:46;87.72;;;34.35;;
48487;SDS011;34289;48.572;13.378;2022-12-18T03:08:51;74.32;;;32.30;;
48487;SDS011;34289;48.572;13.378;2022-12-18T03:11:21;82.80;;;35.75;;
48487;SDS011;34289;48.572;13.378;2022-12-18T03:14:10;76.35;;;34.38;;
48487;SDS011;34289;48.572;13.378;2022-12-18T03:16:41;78.85;;;36.00;;
48487;SDS011;34289;48.572;13.378;2022-12-18T03:19:09;84.50;;;36.10;;
48487;SDS011;34289;48.572;13.378;2022-12-18T03:21:43;83.95;;;36.90;;
48487;SDS011;34289;48.572;13.378;2022-12-18T03:24:21;80.20;;;34.72;;
48487;SDS011;34289;48.572;13.378;2022-12-18T03:26:51;74.18;;;33.42;;
48487;SDS011;34289;48.572;13.378;2022-12-18T03:29:27;73.68;;;33.67;;
48487;SDS011;34289;48.572;13.378;2022-12-18T03:32:01;76.60;;;33.10;;
48487;SDS011;34289;48.572;13.378;2022-12-18T03:34:55;78.25;;;34.17;;
48487;SDS011;34289;48.572;13.378;2022-12-18T03:37:24;72.15;;;31.50;;
48487;SDS011;34289;48.572;13.378;2022-12-18T03:39:50;76.10;;;33.53;;
48487;SDS011;34289;48.572;13.378;2022-12-18T03:42:33;73.40;;;33.42;;
48487;SDS011;34289;48.572;13.378;2022-12-18T03:45:18;73.97;;;32.13;;
48487;SDS011;34289;48.572;13.378;2022-12-18T03:48:01;75.45;;;35.38;;
48487;SDS011;34289;48.572;13.378;2022-12-18T03:50:44;68.43;;;33.67;;
48487;SDS011;34289;48.572;13.378;2022-12-18T03:56:03;69.40;;;32.10;;
48487;SDS011;34289;48.572;13.378;2022-12-18T03:58:31;75.20;;;31.50;;
48487;SDS011;34289;48.572;13.378;2022-12-18T04:01:01;76.53;;;31.65;;
48487;SDS011;34289;48.572;13.378;2022-12-18T04:03:29;66.60;;;29.73;;
48487;SDS011;34289;48.572;13.378;2022-12-18T04:05:58;67.93;;;30.70;;
48487;SDS011;34289;48.572;13.378;2022-12-18T04:08:26;66.90;;;29.83;;
48487;SDS011;34289;48.572;13.378;2022-12-18T04:10:52;75.60;;;31.20;;
48487;SDS011;34289;48.572;13.378;2022-12-18T04:13:21;64.88;;;29.15;;
48487;SDS011;34289;48.572;13.378;2022-12-18T04:15:48;59.50;;;28.50;;
48487;SDS011;34289;48.572;13.378;2022-12-18T04:18:14;64.40;;;30.00;;
48487;SDS011;34289;48.572;13.378;2022-12-18T04:20:40;60.67;;;28.58;;
48487;SDS011;34289;48.572;13.378;2022-12-18T04:23:06;63.70;;;30.23;;
48487;SDS011;34289;48.572;13.378;2022-12-18T04:25:31;74.25;;;32.35;;
48487;SDS011;34289;48.572;13.378;2022-12-18T04:28:00;66.63;;;32.83;;
48487;SDS011;34289;48.572;13.378;2022-12-18T04:30:25;67.20;;;32.50;;
48487;SDS011;34289;48.572;13.378;2022-12-18T04:32:51;69.78;;;31.27;;
48487;SDS011;34289;48.572;13.378;2022-12-18T04:35:17;64.25;;;30.02;;
48487;SDS011;34289;48.572;13.378;2022-12-18T04:37:42;67.63;;;30.45;;
48487;SDS011;34289;48.572;13.378;2022-12-18T04:40:08;69.55;;;31.63;;
48487;SDS011;34289;48.572;13.378;2022-12-18T04:42:34;67.88;;;30.15;;
48487;SDS011;34289;48.572;13.378;2022-12-18T04:45:00;64.20;;;30.83;;
48487;SDS011;34289;48.572;13.378;2022-12-18T04:47:25;63.80;;;31.23;;
48487;SDS011;34289;48.572;13.378;2022-12-18T04:49:51;67.05;;;30.52;;
48487;SDS011;34289;48.572;13.378;2022-12-18T04:52:16;62.92;;;27.90;;
48487;SDS011;34289;48.572;13.378;2022-12-18T04:54:42;59.63;;;28.88;;
48487;SDS011;34289;48.572;13.378;2022-12-18T04:57:08;64.38;;;28.45;;
48487;SDS011;34289;48.572;13.378;2022-12-18T04:59:33;68.18;;;29.15;;
48487;SDS011;34289;48.572;13.378;2022-12-18T05:01:59;63.28;;;27.77;;
48487;SDS011;34289;48.572;13.378;2022-12-18T05:04:25;61.45;;;28.45;;
48487;SDS011;34289;48.572;13.378;2022-12-18T05:06:50;62.47;;;30.25;;
48487;SDS011;34289;48.572;13.378;2022-12-18T05:09:16;72.10;;;30.90;;
48487;SDS011;34289;48.572;13.378;2022-12-18T05:11:41;64.43;;;29.33;;
48487;SDS011;34289;48.572;13.378;2022-12-18T05:14:07;66.35;;;29.42;;
48487;SDS011;34289;48.572;13.378;2022-12-18T05:16:33;61.40;;;27.45;;
48487;SDS011;34289;48.572;13.378;2022-12-18T05:18:58;59.40;;;27.17;;
48487;SDS011;34289;48.572;13.378;2022-12-18T05:21:24;54.38;;;27.05;;
48487;SDS011;34289;48.572;13.378;2022-12-18T05:23:50;66.63;;;27.98;;
48487;SDS011;34289;48.572;13.378;2022-12-18T05:26:16;57.22;;;25.95;;
48487;SDS011;34289;48.572;13.378;2022-12-18T05:28:43;62.90;;;28.85;;
48487;SDS011;34289;48.572;13.378;2022-12-18T05:31:09;62.70;;;29.88;;
48487;SDS011;34289;48.572;13.378;2022-12-18T05:33:35;67.25;;;32.70;;
48487;SDS011;34289;48.572;13.378;2022-12-18T05:36:01;74.10;;;33.67;;
48487;SDS011;34289;48.572;13.378;2022-12-18T05:38:29;77.07;;;31.38;;
48487;SDS011;34289;48.572;13.378;2022-12-18T05:40:56;77.95;;;30.65;;
48487;SDS011;34289;48.572;13.378;2022-12-18T05:43:22;69.80;;;29.30;;
48487;SDS011;34289;48.572;13.378;2022-12-18T05:45:49;83.38;;;32.13;;
48487;SDS011;34289;48.572;13.378;2022-12-18T05:48:16;81.35;;;31.98;;
48487;SDS011;34289;48.572;13.378;2022-12-18T05:50:43;69.00;;;31.58;;
48487;SDS011;34289;48.572;13.378;2022-12-18T05:53:12;80.35;;;31.90;;
48487;SDS011;34289;48.572;13.378;2022-12-18T05:55:40;72.63;;;31.30;;
48487;SDS011;34289;48.572;13.378;2022-12-18T05:58:07;79.28;;;32.95;;
48487;SDS011;34289;48.572;13.378;2022-12-18T06:00:35;82.70;;;31.65;;
48487;SDS011;34289;48.572;13.378;2022-12-18T06:03:04;72.15;;;32.22;;
48487;SDS011;34289;48.572;13.378;2022-12-18T06:05:34;77.97;;;32.38;;
48487;SDS011;34289;48.572;13.378;2022-12-18T06:08:01;90.45;;;32.75;;
48487;SDS011;34289;48.572;13.378;2022-12-18T06:10:27;76.22;;;33.25;;
48487;SDS011;34289;48.572;13.378;2022-12-18T06:12:52;89.13;;;33.00;;
48487;SDS011;34289;48.572;13.378;2022-12-18T06:15:18;78.57;;;30.90;;
48487;SDS011;34289;48.572;13.378;2022-12-18T06:17:44;75.97;;;31.55;;
48487;SDS011;34289;48.572;13.378;2022-12-18T06:20:09;78.50;;;33.20;;
48487;SDS011;34289;48.572;13.378;2022-12-18T06:22:35;75.45;;;30.23;;
48487;SDS011;34289;48.572;13.378;2022-12-18T06:25:00;74.85;;;30.17;;
48487;SDS011;34289;48.572;13.378;2022-12-18T06:27:26;78.32;;;31.67;;
48487;SDS011;34289;48.572;13.378;2022-12-18T06:29:51;82.38;;;32.00;;
48487;SDS011;34289;48.572;13.378;2022-12-18T06:32:17;90.95;;;34.22;;
48487;SDS011;34289;48.572;13.378;2022-12-18T06:34:43;71.13;;;30.75;;
48487;SDS011;34289;48.572;13.378;2022-12-18T06:37:08;79.75;;;30.63;;
48487;SDS011;34289;48.572;13.378;2022-12-18T06:39:34;97.32;;;31.20;;
48487;SDS011;34289;48.572;13.378;2022-12-18T06:41:59;79.80;;;35.00;;
48487;SDS011;34289;48.572;13.378;2022-12-18T06:44:26;77.22;;;31.60;;
48487;SDS011;34289;48.572;13.378;2022-12-18T06:46:51;100.05;;;42.17;;
48487;SDS011;34289;48.572;13.378;2022-12-18T06:49:17;75.18;;;29.95;;
48487;SDS011;34289;48.572;13.378;2022-12-18T06:51:42;66.88;;;25.67;;
48487;SDS011;34289;48.572;13.378;2022-12-18T06:54:08;73.63;;;29.13;;
48487;SDS011;34289;48.572;13.378;2022-12-18T06:56:34;83.47;;;30.33;;
48487;SDS011;34289;48.572;13.378;2022-12-18T06:59:00;71.05;;;29.10;;
48487;SDS011;34289;48.572;13.378;2022-12-18T07:01:26;64.40;;;27.98;;
48487;SDS011;34289;48.572;13.378;2022-12-18T07:03:55;43.60;;;20.08;;
48487;SDS011;34289;48.572;13.378;2022-12-18T07:06:22;48.92;;;23.92;;
48487;SDS011;34289;48.572;13.378;2022-12-18T07:08:49;54.45;;;25.35;;
48487;SDS011;34289;48.572;13.378;2022-12-18T07:11:17;53.55;;;24.42;;
48487;SDS011;34289;48.572;13.378;2022-12-18T07:13:43;54.75;;;24.63;;
48487;SDS011;34289;48.572;13.378;2022-12-18T07:16:28;57.90;;;25.42;;
48487;SDS011;34289;48.572;13.378;2022-12-18T07:18:54;56.85;;;25.98;;
48487;SDS011;34289;48.572;13.378;2022-12-18T07:21:20;56.17;;;25.20;;
48487;SDS011;34289;48.572;13.378;2022-12-18T07:23:47;46.00;;;21.13;;
48487;SDS011;34289;48.572;13.378;2022-12-18T07:26:13;45.95;;;23.48;;
48487;SDS011;34289;48.572;13.378;2022-12-18T07:28:40;43.45;;;19.63;;
48487;SDS011;34289;48.572;13.378;2022-12-18T07:31:07;50.75;;;20.73;;
48487;SDS011;34289;48.572;13.378;2022-12-18T07:33:35;50.33;;;23.27;;
48487;SDS011;34289;48.572;13.378;2022-12-18T07:36:01;37.33;;;19.75;;
48487;SDS011;34289;48.572;13.378;2022-12-18T07:38:28;46.67;;;22.25;;
48487;SDS011;34289;48.572;13.378;2022-12-18T07:40:54;50.72;;;23.10;;
48487;SDS011;34289;48.572;13.378;2022-12-18T07:43:24;53.80;;;25.08;;
48487;SDS011;34289;48.572;13.378;2022-12-18T07:45:50;52.10;;;24.75;;
48487;SDS011;34289;48.572;13.378;2022-12-18T07:48:15;57.33;;;25.55;;
48487;SDS011;34289;48.572;13.378;2022-12-18T07:50:42;52.53;;;24.38;;
48487;SDS011;34289;48.572;13.378;2022-12-18T07:53:07;58.55;;;26.58;;
48487;SDS011;34289;48.572;13.378;2022-12-18T07:55:33;56.90;;;27.08;;
48487;SDS011;34289;48.572;13.378;2022-12-18T07:58:02;55.78;;;25.52;;
48487;SDS011;34289;48.572;13.378;2022-12-18T08:00:31;56.33;;;25.25;;
48487;SDS011;34289;48.572;13.378;2022-12-18T08:02:57;53.05;;;26.70;;
48487;SDS011;34289;48.572;13.378;2022-12-18T08:05:23;60.10;;;28.42;;
48487;SDS011;34289;48.572;13.378;2022-12-18T08:07:49;66.05;;;29.33;;
48487;SDS011;34289;48.572;13.378;2022-12-18T08:10:14;61.88;;;28.08;;
48487;SDS011;34289;48.572;13.378;2022-12-18T08:12:43;46.17;;;25.40;;
48487;SDS011;34289;48.572;13.378;2022-12-18T08:15:09;59.55;;;26.10;;
48487;SDS011;34289;48.572;13.378;2022-12-18T08:17:35;46.33;;;23.30;;
48487;SDS011;34289;48.572;13.378;2022-12-18T08:20:00;61.50;;;27.67;;
48487;SDS011;34289;48.572;13.378;2022-12-18T08:22:26;59.67;;;25.83;;
48487;SDS011;34289;48.572;13.378;2022-12-18T08:24:51;46.30;;;22.52;;
48487;SDS011;34289;48.572;13.378;2022-12-18T08:27:17;55.10;;;26.83;;
48487;SDS011;34289;48.572;13.378;2022-12-18T08:29:43;50.28;;;25.92;;
48487;SDS011;34289;48.572;13.378;2022-12-18T08:32:09;55.58;;;24.42;;
48487;SDS011;34289;48.572;13.378;2022-12-18T08:34:35;62.08;;;27.85;;
48487;SDS011;34289;48.572;13.378;2022-12-18T08:37:00;54.13;;;27.92;;
48487;SDS011;34289;48.572;13.378;2022-12-18T08:39:26;51.55;;;25.27;;
48487;SDS011;34289;48.572;13.378;2022-12-18T08:41:52;52.33;;;25.02;;
48487;SDS011;34289;48.572;13.378;2022-12-18T08:44:36;46.22;;;23.50;;
48487;SDS011;34289;48.572;13.378;2022-12-18T08:47:07;47.38;;;23.00;;
48487;SDS011;34289;48.572;13.378;2022-12-18T08:49:33;37.47;;;18.90;;
48487;SDS011;34289;48.572;13.378;2022-12-18T08:51:59;49.00;;;23.95;;
48487;SDS011;34289;48.572;13.378;2022-12-18T08:54:26;41.85;;;21.05;;
48487;SDS011;34289;48.572;13.378;2022-12-18T08:56:51;49.92;;;24.20;;
48487;SDS011;34289;48.572;13.378;2022-12-18T08:59:17;55.90;;;26.65;;
48487;SDS011;34289;48.572;13.378;2022-12-18T09:01:43;52.35;;;25.05;;
48487;SDS011;34289;48.572;13.378;2022-12-18T09:04:10;57.47;;;27.73;;
48487;SDS011;34289;48.572;13.378;2022-12-18T09:06:36;51.15;;;26.67;;
48487;SDS011;34289;48.572;13.378;2022-12-18T09:09:05;59.10;;;27.27;;
48487;SDS011;34289;48.572;13.378;2022-12-18T09:11:31;57.80;;;26.67;;
48487;SDS011;34289;48.572;13.378;2022-12-18T09:13:59;58.33;;;30.50;;
48487;SDS011;34289;48.572;13.378;2022-12-18T09:16:26;64.93;;;28.67;;
48487;SDS011;34289;48.572;13.378;2022-12-18T09:18:53;62.47;;;27.80;;
48487;SDS011;34289;48.572;13.378;2022-12-18T09:21:25;60.35;;;28.65;;
48487;SDS011;34289;48.572;13.378;2022-12-18T09:23:53;58.83;;;29.27;;
48487;SDS011;34289;48.572;13.378;2022-12-18T09:26:20;53.03;;;26.23;;
48487;SDS011;34289;48.572;13.378;2022-12-18T09:28:47;66.05;;;31.13;;
48487;SDS011;34289;48.572;13.378;2022-12-18T09:31:13;66.35;;;29.05;;
48487;SDS011;34289;48.572;13.378;2022-12-18T09:33:40;72.03;;;31.67;;
48487;SDS011;34289;48.572;13.378;2022-12-18T09:36:06;60.03;;;27.40;;
48487;SDS011;34289;48.572;13.378;2022-12-18T09:38:34;64.10;;;28.13;;
48487;SDS011;34289;48.572;13.378;2022-12-18T09:43:51;59.75;;;29.10;;
48487;SDS011;34289;48.572;13.378;2022-12-18T09:46:25;60.60;;;29.75;;
48487;SDS011;34289;48.572;13.378;2022-12-18T09:48:56;58.00;;;27.73;;
48487;SDS011;34289;48.572;13.378;2022-12-18T09:51:33;62.63;;;28.40;;
48487;SDS011;34289;48.572;13.378;2022-12-18T09:54:04;61.40;;;29.13;;
48487;SDS011;34289;48.572;13.378;2022-12-18T09:56:40;57.85;;;27.00;;
48487;SDS011;34289;48.572;13.378;2022-12-18T09:59:08;58.45;;;28.60;;
48487;SDS011;34289;48.572;13.378;2022-12-18T10:02:12;47.65;;;24.83;;
48487;SDS011;34289;48.572;13.378;2022-12-18T10:04:41;52.05;;;24.60;;
48487;SDS011;34289;48.572;13.378;2022-12-18T10:07:09;48.85;;;22.85;;
48487;SDS011;34289;48.572;13.378;2022-12-18T10:12:53;46.72;;;20.52;;
48487;SDS011;34289;48.572;13.378;2022-12-18T10:15:29;52.67;;;26.10;;
48487;SDS011;34289;48.572;13.378;2022-12-18T10:21:03;59.00;;;29.20;;
48487;SDS011;34289;48.572;13.378;2022-12-18T10:23:52;67.45;;;27.98;;
48487;SDS011;34289;48.572;13.378;2022-12-18T10:26:23;49.22;;;24.73;;
48487;SDS011;34289;48.572;13.378;2022-12-18T10:28:49;56.03;;;26.52;;
48487;SDS011;34289;48.572;13.378;2022-12-18T10:31:19;61.10;;;26.77;;
48487;SDS011;34289;48.572;13.378;2022-12-18T10:33:47;53.33;;;27.23;;
48487;SDS011;34289;48.572;13.378;2022-12-18T10:36:13;57.65;;;27.38;;
48487;SDS011;34289;48.572;13.378;2022-12-18T10:38:39;53.97;;;27.58;;
48487;SDS011;34289;48.572;13.378;2022-12-18T10:41:06;56.15;;;27.08;;
48487;SDS011;34289;48.572;13.378;2022-12-18T10:46:53;59.22;;;24.33;;
48487;SDS011;34289;48.572;13.378;2022-12-18T10:49:31;55.65;;;26.80;;
48487;SDS011;34289;48.572;13.378;2022-12-18T10:54:54;58.80;;;25.25;;
48487;SDS011;34289;48.572;13.378;2022-12-18T10:59:55;51.92;;;27.05;;
48487;SDS011;34289;48.572;13.378;2022-12-18T11:02:36;49.55;;;22.73;;
48487;SDS011;34289;48.572;13.378;2022-12-18T11:05:04;49.45;;;24.00;;
48487;SDS011;34289;48.572;13.378;2022-12-18T11:07:50;49.38;;;25.17;;
48487;SDS011;34289;48.572;13.378;2022-12-18T11:10:19;52.30;;;26.65;;
48487;SDS011;34289;48.572;13.378;2022-12-18T11:12:47;46.97;;;25.75;;
48487;SDS011;34289;48.572;13.378;2022-12-18T11:15:15;48.83;;;24.50;;
48487;SDS011;34289;48.572;13.378;2022-12-18T11:20:20;43.58;;;23.70;;
48487;SDS011;34289;48.572;13.378;2022-12-18T11:23:04;49.78;;;22.98;;
48487;SDS011;34289;48.572;13.378;2022-12-18T11:25:36;40.55;;;23.95;;
48487;SDS011;34289;48.572;13.378;2022-12-18T11:28:04;41.85;;;21.77;;
48487;SDS011;34289;48.572;13.378;2022-12-18T11:30:50;45.58;;;24.17;;
48487;SDS011;34289;48.572;13.378;2022-12-18T11:33:43;52.97;;;26.52;;
48487;SDS011;34289;48.572;13.378;2022-12-18T11:36:31;48.88;;;25.77;;
48487;SDS011;34289;48.572;13.378;2022-12-18T11:39:00;47.00;;;24.45;;
48487;SDS011;34289;48.572;13.378;2022-12-18T11:41:36;52.70;;;24.98;;
48487;SDS011;34289;48.572;13.378;2022-12-18T11:45:01;44.70;;;24.77;;
48487;SDS011;34289;48.572;13.378;2022-12-18T11:47:21;51.00;;;24.88;;
48487;SDS011;34289;48.572;13.378;2022-12-18T11:49:59;54.63;;;26.13;;
48487;SDS011;34289;48.572;13.378;2022-12-18T11:52:28;49.13;;;26.15;;
48487;SDS011;34289;48.572;13.378;2022-12-18T11:55:04;45.60;;;25.10;;
48487;SDS011;34289;48.572;13.378;2022-12-18T12:01:07;46.95;;;25.77;;
48487;SDS011;34289;48.572;13.378;2022-12-18T12:03:48;48.25;;;25.95;;
48487;SDS011;34289;48.572;13.378;2022-12-18T12:06:32;50.35;;;27.05;;
48487;SDS011;34289;48.572;13.378;2022-12-18T12:12:27;50.67;;;25.38;;
48487;SDS011;34289;48.572;13.378;2022-12-18T12:14:57;44.72;;;22.95;;
48487;SDS011;34289;48.572;13.378;2022-12-18T12:17:42;46.05;;;24.90;;
48487;SDS011;34289;48.572;13.378;2022-12-18T12:20:25;52.55;;;24.35;;
48487;SDS011;34289;48.572;13.378;2022-12-18T12:25:45;39.03;;;22.05;;
48487;SDS011;34289;48.572;13.378;2022-12-18T12:39:19;41.45;;;21.85;;
48487;SDS011;34289;48.572;13.378;2022-12-18T12:41:48;40.17;;;20.23;;
48487;SDS011;34289;48.572;13.378;2022-12-18T12:44:34;33.97;;;17.73;;
48487;SDS011;34289;48.572;13.378;2022-12-18T12:47:09;33.53;;;18.13;;
48487;SDS011;34289;48.572;13.378;2022-12-18T12:49:46;46.30;;;19.65;;
48487;SDS011;34289;48.572;13.378;2022-12-18T12:52:22;37.97;;;19.15;;
48487;SDS011;34289;48.572;13.378;2022-12-18T12:54:52;36.25;;;20.00;;
48487;SDS011;34289;48.572;13.378;2022-12-18T12:57:29;36.22;;;18.80;;
48487;SDS011;34289;48.572;13.378;2022-12-18T13:00:05;37.65;;;19.27;;
48487;SDS011;34289;48.572;13.378;2022-12-18T13:08:00;28.35;;;18.13;;
48487;SDS011;34289;48.572;13.378;2022-12-18T13:10:33;32.22;;;18.33;;
48487;SDS011;34289;48.572;13.378;2022-12-18T13:13:02;33.67;;;18.98;;
48487;SDS011;34289;48.572;13.378;2022-12-18T13:15:40;32.80;;;18.30;;
48487;SDS011;34289;48.572;13.378;2022-12-18T13:20:35;32.35;;;18.50;;
48487;SDS011;34289;48.572;13.378;2022-12-18T13:25:51;30.52;;;19.73;;
48487;SDS011;34289;48.572;13.378;2022-12-18T13:29:07;32.67;;;20.98;;
48487;SDS011;34289;48.572;13.378;2022-12-18T13:31:11;33.47;;;19.90;;
48487;SDS011;34289;48.572;13.378;2022-12-18T13:36:43;34.97;;;18.55;;
48487;SDS011;34289;48.572;13.378;2022-12-18T13:41:44;28.50;;;19.42;;
48487;SDS011;34289;48.572;13.378;2022-12-18T13:47:05;28.27;;;18.08;;
48487;SDS011;34289;48.572;13.378;2022-12-18T13:49:57;30.30;;;18.73;;
48487;SDS011;34289;48.572;13.378;2022-12-18T13:52:33;36.25;;;19.00;;
48487;SDS011;34289;48.572;13.378;2022-12-18T13:55:06;33.88;;;19.38;;
48487;SDS011;34289;48.572;13.378;2022-12-18T13:57:40;30.25;;;18.83;;
48487;SDS011;34289;48.572;13.378;2022-12-18T14:02:47;35.80;;;21.00;;
48487;SDS011;34289;48.572;13.378;2022-12-18T14:07:52;31.27;;;18.48;;
48487;SDS011;34289;48.572;13.378;2022-12-18T14:10:19;31.00;;;19.15;;
48487;SDS011;34289;48.572;13.378;2022-12-18T14:12:49;35.10;;;20.83;;
48487;SDS011;34289;48.572;13.378;2022-12-18T14:17:54;35.33;;;20.58;;
48487;SDS011;34289;48.572;13.378;2022-12-18T14:20:22;34.75;;;18.95;;
48487;SDS011;34289;48.572;13.378;2022-12-18T14:22:50;30.23;;;19.45;;
48487;SDS011;34289;48.572;13.378;2022-12-18T14:25:20;42.25;;;19.55;;
48487;SDS011;34289;48.572;13.378;2022-12-18T14:27:51;36.30;;;19.88;;
48487;SDS011;34289;48.572;13.378;2022-12-18T14:30:35;33.97;;;18.92;;
48487;SDS011;34289;48.572;13.378;2022-12-18T14:33:02;32.63;;;19.00;;
48487;SDS011;34289;48.572;13.378;2022-12-18T14:35:36;41.80;;;22.33;;
48487;SDS011;34289;48.572;13.378;2022-12-18T14:40:41;57.80;;;30.52;;
48487;SDS011;34289;48.572;13.378;2022-12-18T14:43:10;46.08;;;23.58;;
48487;SDS011;34289;48.572;13.378;2022-12-18T14:45:37;40.55;;;25.05;;
48487;SDS011;34289;48.572;13.378;2022-12-18T14:48:11;42.40;;;23.88;;
48487;SDS011;34289;48.572;13.378;2022-12-18T14:50:43;43.05;;;24.70;;
48487;SDS011;34289;48.572;13.378;2022-12-18T14:53:18;42.03;;;22.02;;
48487;SDS011;34289;48.572;13.378;2022-12-18T14:55:47;34.58;;;19.92;;
48487;SDS011;34289;48.572;13.378;2022-12-18T14:58:14;33.15;;;20.00;;
48487;SDS011;34289;48.572;13.378;2022-12-18T15:00:42;37.05;;;20.88;;
48487;SDS011;34289;48.572;13.378;2022-12-18T15:03:08;43.13;;;22.23;;
48487;SDS011;34289;48.572;13.378;2022-12-18T15:05:34;32.17;;;19.05;;
48487;SDS011;34289;48.572;13.378;2022-12-18T15:08:00;39.92;;;20.67;;
48487;SDS011;34289;48.572;13.378;2022-12-18T15:10:33;31.98;;;19.20;;
48487;SDS011;34289;48.572;13.378;2022-12-18T15:20:45;29.55;;;17.95;;
48487;SDS011;34289;48.572;13.378;2022-12-18T15:25:48;36.03;;;19.33;;
48487;SDS011;34289;48.572;13.378;2022-12-18T15:28:26;36.13;;;18.20;;
48487;SDS011;34289;48.572;13.378;2022-12-18T15:30:57;35.03;;;17.75;;
48487;SDS011;34289;48.572;13.378;2022-12-18T15:33:26;31.42;;;18.13;;
48487;SDS011;34289;48.572;13.378;2022-12-18T15:35:58;27.10;;;17.50;;
48487;SDS011;34289;48.572;13.378;2022-12-18T15:38:24;25.88;;;15.75;;
48487;SDS011;34289;48.572;13.378;2022-12-18T15:40:53;32.97;;;18.52;;
48487;SDS011;34289;48.572;13.378;2022-12-18T15:43:20;42.72;;;18.38;;
48487;SDS011;34289;48.572;13.378;2022-12-18T15:46:00;43.17;;;18.75;;
48487;SDS011;34289;48.572;13.378;2022-12-18T15:48:30;37.13;;;19.75;;
48487;SDS011;34289;48.572;13.378;2022-12-18T15:51:04;36.72;;;19.42;;
48487;SDS011;34289;48.572;13.378;2022-12-18T15:53:36;40.85;;;19.08;;
48487;SDS011;34289;48.572;13.378;2022-12-18T15:56:04;32.83;;;16.42;;
48487;SDS011;34289;48.572;13.378;2022-12-18T15:58:52;35.83;;;17.90;;
48487;SDS011;34289;48.572;13.378;2022-12-18T16:01:18;33.83;;;20.17;;
48487;SDS011;34289;48.572;13.378;2022-12-18T16:03:47;38.33;;;20.20;;
48487;SDS011;34289;48.572;13.378;2022-12-18T16:06:12;34.30;;;19.70;;
48487;SDS011;34289;48.572;13.378;2022-12-18T16:08:38;60.80;;;31.92;;
48487;SDS011;34289;48.572;13.378;2022-12-18T16:11:03;43.45;;;21.63;;